Airport details for: LGKO (Greece)

Metar

LGKO 261620Z VRB05KT 9999 FEW014 28/21 Q1004

General details

ICAO: LGKO
IATA: KGS
Name (city): Ippokratis
Major:
Country: Greece
vACC: Hellenic vACC
Description:

Kos Island International Airport, "Hippocrates" (IATA: KGS, ICAO: LGKO), or Κρατικός Αερολιμένας Κω, Ιπποκράτης in Greek, is an airport serving the island of Kos, Greece. The airport is located near to Andimachia village. It is also the second closest airport to Bodrum after Milas-Bodrum Airport.

The airport was opened on 4 April 1964. In 1974 the runway was extended to 2,400m. With the increased traffic at the airport in 1980 was built new terminal building. In 1997, the terminal building was renovated and expanded.

Scenery links:
FS9 scenery:
FSX/P3D scenery: Download
XP scenery:
Elevation: 412 ft.
Transition altitude: 5000 ft.
MSA: 7800 ft.
Latitude: 36.794722
Longitude: 27.091111
LGKO Charts
LGKO Notams
LGKO Online stations

Runways

Number Course Length Elevation Lat Lon ILS ILS freq ILS FAC GP
14 145° 7841ft / 2390 m 412ft 36.803717 27.084019 - - 3.0°
32 325° 7841ft / 2390 m 373ft 36.785458 27.098225 - - 3.0°